createdAt,value
2022-10-30T00:00:40.917Z,4.05
2022-10-30T00:03:16.884Z,3.85
2022-10-30T00:05:52.048Z,3.60
2022-10-30T00:08:26.646Z,3.92
2022-10-30T00:11:06.918Z,3.88
2022-10-30T00:13:40.482Z,4.00
2022-10-30T00:16:13.741Z,3.83
2022-10-30T00:18:48.361Z,3.67
2022-10-30T00:21:21.861Z,3.67
2022-10-30T00:23:55.221Z,3.47
2022-10-30T00:26:28.457Z,3.08
2022-10-30T00:29:02.108Z,3.22
2022-10-30T00:31:35.349Z,3.92
2022-10-30T00:34:10.271Z,3.55
2022-10-30T00:36:43.757Z,4.03
2022-10-30T00:39:17.512Z,3.38
2022-10-30T00:41:51.546Z,3.22
2022-10-30T00:44:38.664Z,3.60
2022-10-30T00:47:17.926Z,3.53
2022-10-30T00:49:59.686Z,3.53
2022-10-30T00:52:35.450Z,3.85
2022-10-30T00:55:15.176Z,3.05
2022-10-30T00:57:50.928Z,3.75
2022-10-30T01:00:26.024Z,3.63
2022-10-30T01:02:59.981Z,4.32
2022-10-30T01:05:36.834Z,3.83
2022-10-30T01:08:10.449Z,3.58
2022-10-30T01:10:44.481Z,3.38
2022-10-30T01:13:20.591Z,3.17
2022-10-30T01:16:10.175Z,3.40
2022-10-30T01:18:51.384Z,3.92
2022-10-30T01:21:37.468Z,2.53
2022-10-30T01:24:32.862Z,2.90
2022-10-30T01:27:25.740Z,3.10
2022-10-30T01:30:12.074Z,2.75
2022-10-30T01:32:58.535Z,3.05
2022-10-30T01:35:38.831Z,3.80
2022-10-30T01:38:18.932Z,4.22
2022-10-30T01:43:28.308Z,3.10
2022-10-30T01:46:40.090Z,3.45
2022-10-30T01:49:32.261Z,4.13
2022-10-30T01:52:15.017Z,3.75
2022-10-30T01:55:00.112Z,4.30
2022-10-30T01:57:40.800Z,3.33
2022-10-30T02:00:20.149Z,3.42
2022-10-30T02:02:55.285Z,3.67
2022-10-30T02:05:37.372Z,3.85
2022-10-30T02:08:10.811Z,3.35
2022-10-30T02:10:50.243Z,3.47
2022-10-30T02:13:24.766Z,2.65
2022-10-30T02:16:00.089Z,2.75
2022-10-30T02:18:33.429Z,3.10
2022-10-30T02:21:09.482Z,3.58
2022-10-30T02:23:44.817Z,4.55
2022-10-30T02:26:18.104Z,4.00
2022-10-30T02:28:51.738Z,4.10
2022-10-30T02:31:25.019Z,3.63
2022-10-30T02:33:58.444Z,3.47
2022-10-30T02:36:33.121Z,3.42
2022-10-30T02:39:07.160Z,3.05
2022-10-30T02:41:42.092Z,3.08
2022-10-30T02:44:17.305Z,2.90
2022-10-30T02:46:50.708Z,2.40
2022-10-30T02:49:23.953Z,3.08
2022-10-30T02:51:59.813Z,2.67
2022-10-30T02:54:33.244Z,2.90
2022-10-30T02:57:06.512Z,3.03
2022-10-30T02:59:40.096Z,2.63
2022-10-30T03:02:13.615Z,3.00
2022-10-30T03:04:46.926Z,2.83
2022-10-30T03:07:21.756Z,2.80
2022-10-30T03:09:56.224Z,3.20
2022-10-30T03:12:29.772Z,2.75
2022-10-30T03:15:03.000Z,2.85
2022-10-30T03:17:36.859Z,4.00
2022-10-30T03:20:11.353Z,3.30
2022-10-30T03:22:46.225Z,4.13
2022-10-30T03:25:23.852Z,3.58
2022-10-30T03:28:01.445Z,3.47
2022-10-30T03:30:35.210Z,3.50
2022-10-30T03:33:09.948Z,3.10
2022-10-30T03:35:44.899Z,3.50
2022-10-30T03:38:20.171Z,2.22
2022-10-30T03:40:53.619Z,3.22
2022-10-30T03:43:27.284Z,2.70
2022-10-30T03:46:00.762Z,4.15
2022-10-30T03:48:35.693Z,2.95
2022-10-30T03:51:09.337Z,2.90
2022-10-30T03:53:44.048Z,3.20
2022-10-30T03:56:17.641Z,2.80
2022-10-30T03:58:55.328Z,2.70
2022-10-30T04:01:29.608Z,2.90
2022-10-30T04:04:04.005Z,2.95
2022-10-30T04:06:37.288Z,2.70
2022-10-30T04:09:12.606Z,2.95
2022-10-30T04:11:48.965Z,3.10
2022-10-30T04:14:22.204Z,3.35
2022-10-30T04:16:55.731Z,3.70
2022-10-30T04:19:29.037Z,2.85
2022-10-30T04:22:02.491Z,3.63
2022-10-30T04:24:39.776Z,2.95
2022-10-30T04:27:14.097Z,2.88
2022-10-30T04:29:48.002Z,2.90
2022-10-30T04:32:21.252Z,2.90
2022-10-30T04:34:54.668Z,3.35
2022-10-30T04:37:27.943Z,2.70
2022-10-30T04:40:02.909Z,3.17
2022-10-30T04:42:42.945Z,3.33
2022-10-30T04:45:16.738Z,2.75
2022-10-30T04:47:50.675Z,3.15
2022-10-30T04:50:23.948Z,2.92
2022-10-30T04:53:02.025Z,2.75
2022-10-30T04:55:36.788Z,2.55
2022-10-30T04:58:10.962Z,3.50
2022-10-30T05:00:46.059Z,3.15
2022-10-30T05:03:23.338Z,2.70
2022-10-30T05:06:00.477Z,3.20
2022-10-30T05:08:34.731Z,3.00
2022-10-30T05:11:17.677Z,3.97
2022-10-30T05:13:51.277Z,3.63
2022-10-30T05:16:24.746Z,3.45
2022-10-30T05:18:58.923Z,3.88
2022-10-30T05:21:32.387Z,2.75
2022-10-30T05:24:06.243Z,3.15
2022-10-30T05:26:48.444Z,3.17
2022-10-30T05:29:22.930Z,3.65
2022-10-30T05:31:56.305Z,3.33
2022-10-30T05:34:51.576Z,2.92
2022-10-30T05:37:28.924Z,2.97
2022-10-30T05:40:02.784Z,3.55
2022-10-30T05:42:38.737Z,3.08
2022-10-30T05:45:12.319Z,2.75
2022-10-30T05:47:46.318Z,2.60
2022-10-30T05:50:20.283Z,2.40
2022-10-30T05:53:04.000Z,2.80
2022-10-30T05:55:37.297Z,3.10
2022-10-30T05:58:17.954Z,2.60
2022-10-30T06:00:52.888Z,2.92
2022-10-30T06:03:39.108Z,3.40
2022-10-30T06:06:13.027Z,3.40
2022-10-30T06:08:46.334Z,3.25
2022-10-30T06:14:15.592Z,3.20
2022-10-30T06:16:55.431Z,2.83
2022-10-30T06:19:40.688Z,3.28
2022-10-30T06:22:40.391Z,2.63
2022-10-30T06:25:21.311Z,2.90
2022-10-30T06:28:03.654Z,3.43
2022-10-30T06:30:39.271Z,3.20
2022-10-30T06:33:13.121Z,3.00
2022-10-30T06:35:51.813Z,2.15
2022-10-30T06:38:26.072Z,2.70
2022-10-30T06:41:00.655Z,2.30
2022-10-30T06:43:36.823Z,1.85
2022-10-30T06:46:15.482Z,2.42
2022-10-30T06:48:50.019Z,2.00
2022-10-30T06:51:24.874Z,2.08
2022-10-30T06:54:00.313Z,1.90
2022-10-30T06:56:45.295Z,1.80
2022-10-30T06:59:18.585Z,2.08
2022-10-30T07:02:00.532Z,1.77
2022-10-30T07:04:45.827Z,1.98
2022-10-30T07:07:19.608Z,1.98
2022-10-30T07:09:52.930Z,1.33
2022-10-30T07:12:33.107Z,1.88
2022-10-30T07:15:24.667Z,1.98
2022-10-30T07:18:13.407Z,2.22
2022-10-30T07:20:46.882Z,2.17
2022-10-30T07:23:20.525Z,2.00
2022-10-30T07:25:53.847Z,1.90
2022-10-30T07:28:38.259Z,2.08
2022-10-30T07:31:41.535Z,1.83
2022-10-30T07:34:46.443Z,1.60
2022-10-30T07:37:42.620Z,2.22
2022-10-30T07:40:20.147Z,2.00
2022-10-30T07:43:13.481Z,1.98
2022-10-30T07:46:02.519Z,1.42
2022-10-30T07:48:54.380Z,1.85
2022-10-30T07:51:38.530Z,1.92
2022-10-30T07:54:11.789Z,1.90
2022-10-30T07:56:45.071Z,2.00
2022-10-30T07:59:55.880Z,1.70
2022-10-30T08:02:50.722Z,2.17
2022-10-30T08:05:33.366Z,1.50
2022-10-30T08:08:16.783Z,2.10
2022-10-30T08:10:50.384Z,2.00
2022-10-30T08:13:23.622Z,1.83
2022-10-30T08:15:57.063Z,1.65
2022-10-30T08:18:30.383Z,1.77
2022-10-30T08:21:03.691Z,1.75
2022-10-30T08:23:38.775Z,1.60
2022-10-30T08:26:17.865Z,1.67
2022-10-30T08:28:51.319Z,1.77
2022-10-30T08:31:24.593Z,2.03
2022-10-30T08:34:18.650Z,1.60
2022-10-30T08:36:59.210Z,1.30
2022-10-30T08:39:33.938Z,1.88
2022-10-30T08:42:27.358Z,2.38
2022-10-30T08:45:03.203Z,1.90
2022-10-30T08:47:58.980Z,1.35
2022-10-30T08:50:35.101Z,1.92
2022-10-30T08:53:11.279Z,2.03
2022-10-30T08:55:46.017Z,1.63
2022-10-30T08:58:30.358Z,1.80
2022-10-30T09:01:04.287Z,1.80
2022-10-30T09:03:56.696Z,1.63
2022-10-30T09:06:50.242Z,1.88
2022-10-30T09:09:43.964Z,1.83
2022-10-30T09:12:19.400Z,1.33
2022-10-30T09:14:53.673Z,1.75
2022-10-30T09:17:27.049Z,1.50
2022-10-30T09:20:00.284Z,2.10
2022-10-30T09:22:42.659Z,2.17
2022-10-30T09:25:16.847Z,1.52
2022-10-30T09:27:57.847Z,1.48
2022-10-30T09:30:34.390Z,2.33
2022-10-30T09:33:08.476Z,1.48
2022-10-30T09:36:02.738Z,1.55
2022-10-30T09:38:36.095Z,1.92
2022-10-30T09:41:28.218Z,1.65
2022-10-30T09:44:17.242Z,1.42
2022-10-30T09:47:02.977Z,2.05
2022-10-30T09:50:14.946Z,1.63
2022-10-30T09:53:02.119Z,2.20
2022-10-30T09:55:43.105Z,1.20
2022-10-30T09:58:27.282Z,1.58
2022-10-30T10:01:13.617Z,1.83
2022-10-30T10:04:02.259Z,1.42
2022-10-30T10:07:01.781Z,1.38
2022-10-30T10:09:55.537Z,1.95
2022-10-30T10:12:42.124Z,1.83
2022-10-30T10:15:22.752Z,1.92
2022-10-30T10:17:59.992Z,2.30
2022-10-30T10:20:37.842Z,2.22
2022-10-30T10:23:19.080Z,1.77
2022-10-30T10:25:55.306Z,2.22
2022-10-30T10:28:48.272Z,2.92
2022-10-30T10:34:25.814Z,1.75
2022-10-30T10:37:06.012Z,1.83
2022-10-30T10:39:59.388Z,1.95
2022-10-30T10:42:41.238Z,2.00
2022-10-30T10:45:23.114Z,2.27
2022-10-30T10:48:30.662Z,2.00
2022-10-30T10:51:09.234Z,1.75
2022-10-30T10:53:45.879Z,2.40
2022-10-30T10:56:21.839Z,2.88
2022-10-30T10:58:57.966Z,2.10
2022-10-30T11:01:37.396Z,2.60
2022-10-30T11:04:15.787Z,2.40
2022-10-30T11:06:53.212Z,2.38
2022-10-30T11:09:28.339Z,1.70
2022-10-30T11:12:01.591Z,2.20
2022-10-30T11:14:34.864Z,1.77
2022-10-30T11:17:19.982Z,2.10
2022-10-30T11:19:58.244Z,2.03
2022-10-30T11:22:38.182Z,2.55
2022-10-30T11:25:20.647Z,2.00
2022-10-30T11:27:56.977Z,2.25
2022-10-30T11:30:30.400Z,2.10
2022-10-30T11:33:23.171Z,2.40
2022-10-30T11:41:06.066Z,2.85
2022-10-30T11:43:41.823Z,2.30
2022-10-30T11:46:23.580Z,2.75
2022-10-30T11:48:57.061Z,1.92
2022-10-30T11:51:38.328Z,2.28
2022-10-30T11:54:22.869Z,2.25
2022-10-30T11:56:58.538Z,2.47
2022-10-30T11:59:32.073Z,2.72
2022-10-30T12:02:22.265Z,2.58
2022-10-30T12:04:56.004Z,2.83
2022-10-30T12:07:32.677Z,2.15
2022-10-30T12:10:25.754Z,2.33
2022-10-30T12:13:05.031Z,2.30
2022-10-30T12:15:38.583Z,2.17
2022-10-30T12:18:22.245Z,2.15
2022-10-30T12:20:58.386Z,2.30
2022-10-30T12:23:33.100Z,2.30
2022-10-30T12:26:12.665Z,2.20
2022-10-30T12:28:56.361Z,2.67
2022-10-30T12:31:40.278Z,2.25
2022-10-30T12:34:31.166Z,2.83
2022-10-30T12:37:10.034Z,2.55
2022-10-30T12:39:56.506Z,2.65
2022-10-30T12:42:35.937Z,2.28
2022-10-30T12:45:16.208Z,2.70
2022-10-30T12:47:55.628Z,2.10
2022-10-30T12:50:36.391Z,2.70
2022-10-30T12:53:21.995Z,2.80
2022-10-30T12:56:01.138Z,2.50
2022-10-30T12:58:45.661Z,2.60
2022-10-30T13:01:28.875Z,2.17
2022-10-30T13:04:19.001Z,2.67
2022-10-30T13:06:57.091Z,2.88
2022-10-30T13:09:39.215Z,2.85
2022-10-30T13:12:16.489Z,2.40
2022-10-30T13:14:57.907Z,3.00
2022-10-30T13:17:31.763Z,2.65
2022-10-30T13:20:13.974Z,3.00
2022-10-30T13:22:53.304Z,2.35
2022-10-30T13:25:34.086Z,2.88
2022-10-30T13:28:13.947Z,2.38
2022-10-30T13:31:02.122Z,2.67
2022-10-30T13:33:43.864Z,2.45
2022-10-30T13:36:23.354Z,2.60
2022-10-30T13:39:02.869Z,2.83
2022-10-30T13:41:45.441Z,3.13
2022-10-30T13:44:28.700Z,2.67
2022-10-30T13:47:14.299Z,2.38
2022-10-30T13:50:02.077Z,2.88
2022-10-30T13:52:39.011Z,2.80
2022-10-30T13:55:20.534Z,2.55
2022-10-30T13:57:58.786Z,3.03
2022-10-30T14:00:55.509Z,2.70
2022-10-30T14:03:41.759Z,3.10
2022-10-30T14:06:25.480Z,2.88
2022-10-30T14:09:07.551Z,3.10
2022-10-30T14:11:40.807Z,3.10
2022-10-30T14:14:32.185Z,3.05
2022-10-30T14:17:11.992Z,3.10
2022-10-30T14:20:29.151Z,2.58
2022-10-30T14:23:09.995Z,3.05
2022-10-30T14:25:44.138Z,3.22
2022-10-30T14:28:22.061Z,3.67
2022-10-30T14:31:03.589Z,3.20
2022-10-30T14:33:45.466Z,3.28
2022-10-30T14:36:23.552Z,4.05
2022-10-30T14:39:01.632Z,3.17
2022-10-30T14:41:56.539Z,3.88
2022-10-30T14:44:47.622Z,2.75
2022-10-30T14:47:41.693Z,3.13
2022-10-30T14:50:22.897Z,3.28
2022-10-30T14:53:23.128Z,3.17
2022-10-30T14:56:04.823Z,3.58
2022-10-30T14:58:39.587Z,3.15
2022-10-30T15:01:45.116Z,4.07
2022-10-30T15:04:23.448Z,4.05
2022-10-30T15:07:05.001Z,4.43
2022-10-30T15:09:49.128Z,4.85
2022-10-30T15:13:06.634Z,5.32
2022-10-30T15:15:40.413Z,5.32
2022-10-30T15:18:20.481Z,4.63
2022-10-30T15:20:55.963Z,4.82
2022-10-30T15:23:30.900Z,4.88
2022-10-30T15:26:09.924Z,4.07
2022-10-30T15:28:43.765Z,4.45
2022-10-30T15:31:24.356Z,6.35
2022-10-30T15:33:58.865Z,7.53
2022-10-30T15:36:41.763Z,8.65
2022-10-30T15:39:16.378Z,9.05
2022-10-30T15:41:53.846Z,7.43
2022-10-30T15:44:29.791Z,5.78
2022-10-30T15:47:05.130Z,5.35
2022-10-30T15:49:42.596Z,5.85
2022-10-30T15:52:20.489Z,6.47
2022-10-30T15:54:57.528Z,6.88
2022-10-30T16:00:31.672Z,5.30
2022-10-30T16:03:07.594Z,5.15
2022-10-30T16:05:41.213Z,6.43
2022-10-30T16:08:17.231Z,5.68
2022-10-30T16:10:53.512Z,5.47
2022-10-30T16:13:31.701Z,5.90
2022-10-30T16:16:05.456Z,6.93
2022-10-30T16:18:39.050Z,7.20
2022-10-30T16:21:16.912Z,9.52
2022-10-30T16:23:53.069Z,8.75
2022-10-30T16:26:32.884Z,7.38
2022-10-30T16:29:21.985Z,5.88
2022-10-30T16:31:55.886Z,6.75
2022-10-30T16:34:34.846Z,7.63
2022-10-30T16:37:14.073Z,6.95
2022-10-30T16:39:49.306Z,7.05
2022-10-30T16:42:24.155Z,6.65
2022-10-30T16:45:39.922Z,5.80
2022-10-30T16:48:24.558Z,7.63
2022-10-30T16:51:03.027Z,9.30
2022-10-30T16:53:36.363Z,9.30
2022-10-30T16:56:21.738Z,16.40
2022-10-30T16:58:57.792Z,13.68
2022-10-30T17:01:32.660Z,11.05
2022-10-30T17:04:06.685Z,14.73
2022-10-30T17:06:43.200Z,18.98
2022-10-30T17:09:25.208Z,21.95
2022-10-30T17:12:17.074Z,23.13
2022-10-30T17:14:53.509Z,16.17
2022-10-30T17:17:36.273Z,22.58
2022-10-30T17:20:15.033Z,13.30
2022-10-30T17:22:52.183Z,11.98
2022-10-30T17:25:35.915Z,13.25
2022-10-30T17:28:25.786Z,11.23
2022-10-30T17:30:59.088Z,7.93
2022-10-30T17:33:36.917Z,6.75
2022-10-30T17:36:10.604Z,6.82
2022-10-30T17:38:43.897Z,6.38
2022-10-30T17:41:17.678Z,7.07
2022-10-30T17:43:52.770Z,6.53
2022-10-30T17:46:26.331Z,5.55
2022-10-30T17:49:01.215Z,4.72
2022-10-30T17:51:34.525Z,6.75
2022-10-30T17:54:13.975Z,5.75
2022-10-30T17:56:47.218Z,5.93
2022-10-30T17:59:20.524Z,4.97
2022-10-30T18:01:54.085Z,5.63
2022-10-30T18:04:28.899Z,4.97
2022-10-30T18:07:02.215Z,6.00
2022-10-30T18:09:35.539Z,5.65
2022-10-30T18:12:13.364Z,6.43
2022-10-30T18:14:46.675Z,5.22
2022-10-30T18:17:19.922Z,5.47
2022-10-30T18:19:54.752Z,5.55
2022-10-30T18:22:28.047Z,5.30
2022-10-30T18:25:01.552Z,6.43
2022-10-30T18:27:34.797Z,6.30
2022-10-30T18:30:09.436Z,5.55
2022-10-30T18:32:42.901Z,6.20
2022-10-30T18:35:26.473Z,6.85
2022-10-30T18:38:00.095Z,6.10
2022-10-30T18:40:33.976Z,5.75
2022-10-30T18:43:09.831Z,6.30
2022-10-30T18:45:44.107Z,6.95
2022-10-30T18:48:17.427Z,6.75
2022-10-30T18:50:52.102Z,6.13
2022-10-30T18:53:25.335Z,5.38
2022-10-30T18:55:58.632Z,5.95
2022-10-30T18:58:31.875Z,5.82
2022-10-30T19:01:13.083Z,7.10
2022-10-30T19:03:47.772Z,7.10
2022-10-30T19:06:26.194Z,5.60
2022-10-30T19:08:59.514Z,6.88
2022-10-30T19:11:33.145Z,5.88
2022-10-30T19:14:11.187Z,8.30
2022-10-30T19:16:44.549Z,6.78
2022-10-30T19:19:18.044Z,6.35
2022-10-30T19:21:52.958Z,7.78
2022-10-30T19:24:27.841Z,6.30
2022-10-30T19:27:01.219Z,7.10
2022-10-30T19:29:34.666Z,7.00
2022-10-30T19:32:08.012Z,6.50
2022-10-30T19:34:45.744Z,7.10
2022-10-30T19:37:20.452Z,7.65
2022-10-30T19:39:53.778Z,8.07
2022-10-30T19:42:27.158Z,8.27
2022-10-30T19:45:00.477Z,7.22
2022-10-30T19:47:33.759Z,7.05
2022-10-30T19:50:20.778Z,8.50
2022-10-30T19:52:57.693Z,8.48
2022-10-30T19:55:33.231Z,9.00
2022-10-30T19:58:08.260Z,8.13
2022-10-30T20:00:44.539Z,6.80
2022-10-30T20:03:18.898Z,6.80
2022-10-30T20:05:52.209Z,7.25
2022-10-30T20:08:27.021Z,7.78
2022-10-30T20:11:03.615Z,7.55
2022-10-30T20:13:37.245Z,7.03
2022-10-30T20:16:12.480Z,7.10
2022-10-30T20:18:45.799Z,6.93
2022-10-30T20:21:21.132Z,6.53
2022-10-30T20:23:55.793Z,6.97
2022-10-30T20:26:30.631Z,5.78
2022-10-30T20:29:04.290Z,6.43
2022-10-30T20:31:37.645Z,7.43
2022-10-30T20:34:10.941Z,7.10
2022-10-30T20:36:44.172Z,8.43
2022-10-30T20:39:18.857Z,7.03
2022-10-30T20:41:52.111Z,5.88
2022-10-30T20:44:25.402Z,6.18
2022-10-30T20:46:58.652Z,10.73
2022-10-30T20:49:31.902Z,11.35
2022-10-30T20:52:05.406Z,8.25
2022-10-30T20:54:40.074Z,8.63
2022-10-30T20:57:13.284Z,8.98
2022-10-30T20:59:46.512Z,10.07
2022-10-30T21:02:19.897Z,9.55
2022-10-30T21:04:53.309Z,15.43
2022-10-30T21:07:26.973Z,12.25
2022-10-30T21:10:01.597Z,9.73
2022-10-30T21:12:35.013Z,7.25
2022-10-30T21:15:08.624Z,6.32
2022-10-30T21:17:41.920Z,12.63
2022-10-30T21:20:15.227Z,8.90
2022-10-30T21:22:48.521Z,9.52
2022-10-30T21:25:23.296Z,15.35
2022-10-30T21:27:57.553Z,29.77
2022-10-30T21:30:31.169Z,12.20
2022-10-30T21:33:04.881Z,11.38
2022-10-30T21:35:38.348Z,6.70
2022-10-30T21:38:11.603Z,6.70
2022-10-30T21:40:46.286Z,13.52
2022-10-30T21:43:19.525Z,8.35
2022-10-30T21:45:53.114Z,11.13
2022-10-30T21:48:26.928Z,10.30
2022-10-30T21:51:07.384Z,7.47
2022-10-30T21:53:40.903Z,8.30
2022-10-30T21:56:17.294Z,8.05
2022-10-30T21:58:51.114Z,7.95
2022-10-30T22:01:26.619Z,6.35
2022-10-30T22:04:01.096Z,5.03
2022-10-30T22:06:34.579Z,6.22
2022-10-30T22:09:08.072Z,7.32
2022-10-30T22:11:43.066Z,6.68
2022-10-30T22:14:16.494Z,6.10
2022-10-30T22:16:49.780Z,5.45
2022-10-30T22:19:23.195Z,5.30
2022-10-30T22:21:56.629Z,6.07
2022-10-30T22:24:29.848Z,5.88
2022-10-30T22:27:04.737Z,5.80
2022-10-30T22:29:38.115Z,5.75
2022-10-30T22:32:11.395Z,5.45
2022-10-30T22:34:44.642Z,5.97
2022-10-30T22:37:17.912Z,5.60
2022-10-30T22:39:51.433Z,5.68
2022-10-30T22:42:26.037Z,4.95
2022-10-30T22:44:59.277Z,5.25
2022-10-30T22:47:32.538Z,5.03
2022-10-30T22:50:06.737Z,4.38
2022-10-30T22:52:40.098Z,5.68
2022-10-30T22:55:13.829Z,4.63
2022-10-30T22:57:48.450Z,5.32
2022-10-30T23:00:27.657Z,5.53
2022-10-30T23:03:01.430Z,4.45
2022-10-30T23:05:35.016Z,4.95
2022-10-30T23:08:08.303Z,4.65
2022-10-30T23:10:41.614Z,3.95
2022-10-30T23:13:16.348Z,3.92
2022-10-30T23:15:50.387Z,4.88
2022-10-30T23:18:23.644Z,4.25
2022-10-30T23:21:01.508Z,4.18
2022-10-30T23:23:37.009Z,3.40
2022-10-30T23:26:11.866Z,3.83
2022-10-30T23:28:47.249Z,4.22
2022-10-30T23:31:23.955Z,4.15
2022-10-30T23:33:58.906Z,3.65
2022-10-30T23:36:32.839Z,4.10
2022-10-30T23:39:08.205Z,3.28
2022-10-30T23:41:41.538Z,3.55
2022-10-30T23:44:17.338Z,3.70
2022-10-30T23:46:50.571Z,3.90
2022-10-30T23:49:23.812Z,4.03
2022-10-30T23:51:57.221Z,4.43
2022-10-30T23:54:30.642Z,3.72
2022-10-30T23:57:03.909Z,4.07
2022-10-30T23:59:38.858Z,3.97
